Date,TemperatureHighF,TemperatureAvgF,TemperatureLowF,DewpointHighF,DewpointAvgF,DewpointLowF,HumidityHigh,HumidityAvg,HumidityLow,PressureMaxIn,PressureMinIn,WindSpeedMaxMPH,WindSpeedAvgMPH,GustSpeedMaxMPH,PrecipitationSumIn
2013-1-1,32.7,30.1,25.7,29.7,26.5,18.9,94,86,75,29.81,29.71,2,1,3,0.05
2013-1-2,34.5,20.7,9.8,19.2,10.0,2.6,89,65,39,29.95,29.81,5,1,6,0.05
2013-1-3,35.8,24.2,9.7,20.0,13.2,0.9,72,63,46,29.98,29.86,8,3,14,0.05
2013-1-4,37.7,29.1,23.2,22.4,18.6,15.2,77,65,48,30.06,29.95,11,6,17,0.00
2013-1-5,40.1,29.9,18.3,27.4,21.5,15.4,89,72,54,30.11,29.82,9,3,13,0.00
2013-1-6,35.4,30.1,24.6,28.9,23.7,17.7,81,77,73,30.01,29.72,10,5,17,0.00
2013-1-7,42.1,29.7,16.1,26.6,21.1,13.3,90,72,51,30.20,29.86,7,3,10,0.00
2013-1-8,51.4,35.9,21.2,32.4,26.1,18.0,88,69,47,30.01,29.81,7,3,9,0.00
2013-1-9,57.0,43.6,34.1,42.7,34.4,27.2,88,71,49,30.10,29.84,7,3,11,0.04
2013-1-10,40.6,36.0,29.5,36.8,31.5,26.3,91,84,73,30.19,29.72,4,2,6,0.04
2013-1-11,60.6,52.8,41.0,52.7,46.8,36.5,94,80,64,29.70,29.46,10,5,17,0.58
2013-1-12,61.7,56.3,48.2,59.3,53.5,44.2,94,90,81,29.92,29.58,10,4,14,0.08
2013-1-13,62.8,49.7,31.8,58.6,47.3,29.8,95,92,82,30.12,29.71,17,6,17,0.80
2013-1-14,31.3,24.0,18.5,25.8,19.3,15.3,90,82,73,30.44,30.20,4,1,6,0.00
2013-1-15,34.7,25.9,16.5,25.1,20.3,14.1,91,79,62,30.46,30.09,4,1,7,0.00
2013-1-16,34.9,29.7,27.5,26.1,23.6,22.0,84,78,62,30.10,29.99,6,3,8,0.00
2013-1-17,48.7,33.1,24.1,33.4,23.6,17.0,86,69,48,30.38,30.10,5,2,8,0.00
2013-1-18,40.6,29.1,13.1,22.8,17.0,9.2,85,62,40,30.60,30.25,11,6,16,0.00
2013-1-19,54.1,43.5,33.6,26.8,24.3,22.5,64,48,30,30.29,29.82,17,11,24,0.00
2013-1-20,44.8,31.5,22.8,32.3,13.4,8.0,68,47,32,30.24,29.89,18,4,18,0.00
2013-1-21,23.3,18.5,9.8,13.3,4.8,-4.6,71,55,39,30.32,30.16,15,7,20,0.00
2013-1-22,20.5,11.8,1.4,-0.6,-3.6,-6.3,70,50,33,30.44,30.31,8,4,11,0.00
2013-1-23,20.6,15.6,5.7,7.5,2.4,-4.0,70,55,47,30.43,30.10,9,2,11,0.00
2013-1-24,28.2,18.9,9.5,8.8,1.5,-4.3,69,48,28,30.65,30.13,4,2,10,0.00
2013-1-25,24.8,20.8,17.0,17.1,12.2,3.2,83,69,51,30.48,30.05,7,3,8,0.00
2013-1-26,39.0,24.4,14.3,21.2,14.9,10.8,88,69,44,30.39,30.11,6,2,8,0.04
2013-1-27,35.6,27.7,14.7,31.1,20.2,10.6,88,74,58,30.47,30.09,5,3,8,0.17
2013-1-28,50.2,46.1,35.8,48.5,43.6,33.4,94,91,84,30.09,29.90,13,7,16,0.11
2013-1-29,62.4,56.6,48.2,55.6,51.9,46.5,94,85,78,29.91,29.39,15,9,20,0.00
2013-1-30,65.3,48.5,29.6,56.3,43.8,22.7,93,84,72,29.42,29.17,18,9,20,0.60
2013-1-31,29.8,23.7,13.3,22.2,15.5,6.8,85,71,60,29.91,29.46,12,6,18,0.00
2013-2-1,19.2,10.0,1.9,4.8,0.2,-4.9,74,64,50,30.30,29.93,16,5,16,0.00
2013-2-2,30.7,22.2,7.1,22.5,16.9,0.9,86,80,66,30.21,29.87,8,5,11,0.00
2013-2-3,24.6,18.7,13.3,19.9,12.7,8.3,85,77,67,29.95,29.86,8,4,11,0.00
2013-2-4,32.2,25.3,12.5,29.2,21.3,9.1,93,85,68,30.03,29.67,10,3,13,0.00
2013-2-5,34.1,31.0,21.9,29.4,26.3,19.7,94,83,73,29.84,29.69,6,2,8,0.09
2013-2-6,36.5,31.5,25.3,28.9,24.8,20.6,84,76,65,30.11,29.85,8,2,8,0.00
2013-2-7,61.0,44.2,26.2,37.2,30.9,22.6,86,62,38,30.08,29.61,6,2,9,0.00
2013-2-8,48.2,33.6,27.8,39.3,27.3,20.8,87,77,61,30.20,29.61,11,4,15,0.06
2013-2-9,46.6,33.2,18.8,22.6,17.6,13.7,81,55,30,30.34,30.05,5,2,8,0.00
2013-2-10,53.8,42.6,28.6,42.2,29.8,17.0,86,62,39,30.07,29.58,14,7,21,0.02
2013-2-11,49.3,43.4,34.5,46.7,30.4,24.7,92,61,44,29.91,29.61,17,10,25,0.00
2013-2-12,52.5,38.8,25.0,27.5,22.3,18.3,82,55,28,30.04,29.70,8,3,11,0.00
2013-2-13,40.8,30.6,26.6,30.4,25.0,21.3,86,80,61,29.74,29.65,4,2,5,0.18
2013-2-14,53.0,39.5,26.8,36.8,30.9,23.7,92,73,48,29.81,29.63,13,6,19,0.01
2013-2-15,41.5,31.0,19.7,30.1,23.7,15.4,88,75,54,29.99,29.78,8,3,14,0.00
2013-2-16,28.2,21.1,14.9,17.9,11.8,5.5,89,68,48,30.03,29.91,9,4,15,0.00
2013-2-17,36.7,23.3,8.9,12.1,6.9,2.5,85,53,26,30.15,30.00,6,2,10,0.00
2013-2-18,58.6,42.8,20.3,37.7,24.5,4.1,82,50,35,30.09,29.55,21,10,32,0.08
2013-2-19,42.8,33.1,28.2,38.7,27.9,18.9,90,81,67,29.81,29.51,17,6,17,0.15
2013-2-20,30.4,21.4,15.2,13.0,9.7,6.6,75,61,46,30.53,30.30,8,2,8,0.00
2013-2-21,35.9,23.8,14.9,22.4,15.3,9.0,86,70,49,30.58,30.25,10,4,10,0.00
2013-2-22,40.4,32.1,26.8,35.1,29.2,23.4,94,89,80,30.28,30.11,11,2,11,0.17
2013-2-23,44.9,33.4,27.1,28.6,24.0,20.1,93,70,45,30.24,29.84,7,2,7,0.00
2013-2-24,47.1,32.6,21.7,26.2,21.1,17.4,84,64,41,30.10,29.85,6,2,10,0.00
2013-2-25,50.3,35.8,20.3,23.8,21.2,16.3,84,58,33,30.05,29.69,8,4,11,0.00
2013-2-26,43.7,38.3,31.4,41.8,34.5,21.8,93,87,60,29.69,29.19,8,5,11,0.85
2013-2-27,39.7,33.2,30.2,37.0,30.2,27.5,93,89,81,29.57,29.31,13,7,17,0.05
2013-2-28,34.1,32.0,29.5,30.7,28.8,26.1,91,88,85,29.74,29.57,7,3,14,0.02
2013-3-1,37.6,31.8,27.8,33.8,28.8,23.1,93,89,82,29.85,29.75,4,1,4,0.07
2013-3-2,30.7,26.0,23.7,23.3,19.6,17.9,81,77,72,29.96,29.87,2,0,4,0.00
2013-3-3,32.2,26.4,17.8,21.1,17.2,12.6,80,68,57,29.95,29.83,6,2,12,0.00
2013-3-4,44.2,31.7,14.3,23.6,19.5,10.9,87,63,41,30.08,29.75,7,3,8,0.00
2013-3-5,36.5,33.3,27.7,33.0,28.6,22.4,93,83,60,29.78,29.43,8,3,9,0.25
2013-3-6,33.8,28.9,25.1,28.6,25.3,22.9,93,86,79,30.08,29.50,0,0,0,0.02
2013-3-7,38.6,32.0,27.7,30.9,26.7,22.7,91,81,68,30.21,30.09,4,1,8,0.19
2013-3-8,49.3,35.8,21.7,29.8,23.4,18.8,88,63,38,30.32,30.12,5,2,8,0.01
2013-3-9,58.8,43.9,27.5,32.5,28.3,20.0,82,57,35,30.23,29.84,8,4,11,0.00
2013-3-10,69.4,58.9,48.5,38.2,31.2,26.7,53,36,22,29.96,29.65,14,10,19,0.01
2013-3-11,54.8,46.1,35.0,49.5,41.2,28.9,93,83,56,29.73,29.52,16,9,25,1.14
2013-3-12,46.7,36.7,31.3,28.6,26.5,24.8,81,67,45,29.92,29.73,11,7,17,0.00
2013-3-13,31.3,27.1,22.1,26.8,20.3,15.4,89,75,62,30.15,29.85,10,4,23,0.02
2013-3-14,47.1,32.6,15.4,22.6,18.1,12.4,89,59,30,30.23,29.93,6,3,10,0.04
2013-3-15,53.4,40.6,26.6,36.2,31.3,23.6,91,71,51,29.96,29.60,7,3,10,0.00
2013-3-16,60.4,46.9,37.0,50.9,39.9,32.9,91,77,58,29.87,29.45,9,4,15,0.18
2013-3-17,35.8,33.1,31.1,32.0,27.2,25.7,88,79,72,30.04,29.83,7,4,11,0.04
2013-3-18,49.3,38.2,30.9,47.6,36.0,28.0,95,92,81,29.93,29.46,12,5,17,0.83
2013-3-19,44.9,35.3,24.6,31.6,18.2,11.8,89,53,27,30.22,29.95,16,9,25,0.01
2013-3-20,37.2,29.4,20.3,19.6,13.1,7.1,72,51,36,30.26,30.08,12,6,20,0.00
2013-3-21,37.4,25.7,16.3,13.5,9.3,6.7,71,51,35,30.19,30.06,7,3,12,0.00
2013-3-22,50.2,33.3,15.4,17.2,12.7,7.2,73,46,22,30.27,30.00,6,2,11,0.00
2013-3-23,59.2,42.4,26.4,22.5,19.8,14.3,66,43,23,30.19,29.92,4,1,11,0.00
2013-3-24,35.8,31.8,30.2,28.8,26.0,19.4,92,80,51,29.98,29.53,8,3,11,0.09
2013-3-25,34.1,30.6,26.6,29.8,27.2,24.3,93,87,81,30.06,29.56,6,2,11,0.15
2013-3-26,40.1,32.8,28.9,30.0,26.0,21.8,90,76,59,30.26,29.84,7,3,16,0.28
2013-3-27,46.2,35.8,24.8,29.1,24.1,20.7,86,64,43,30.02,29.92,9,4,14,0.00
2013-3-28,53.8,39.6,23.3,28.0,23.1,16.1,76,54,33,30.13,29.98,6,2,11,0.00
2013-3-29,58.8,44.7,26.6,31.1,26.5,20.9,81,52,28,30.08,29.84,5,2,8,0.00
2013-3-30,63.5,49.4,30.7,33.6,29.1,24.7,79,49,25,29.98,29.67,8,3,14,0.00
2013-3-31,59.3,49.2,42.8,45.1,39.8,30.1,90,71,48,29.67,29.44,9,4,12,0.13
2013-4-1,50.0,41.3,31.6,38.7,22.8,14.7,76,50,29,29.93,29.47,8,4,13,0.00
2013-4-2,50.0,36.2,20.8,20.7,14.5,9.0,75,44,20,30.07,29.90,7,3,14,0.00
2013-4-3,53.8,39.2,20.6,18.6,12.2,5.5,64,36,15,30.19,30.03,6,2,10,0.00
2013-4-4,61.5,45.3,28.7,17.9,13.2,3.9,55,31,10,30.10,29.72,6,2,8,0.00
2013-4-5,67.4,51.3,32.3,34.7,24.7,16.0,56,37,20,29.95,29.75,6,2,10,0.00
2013-4-6,68.5,51.6,36.1,33.1,26.5,20.2,58,40,22,30.14,29.78,12,5,12,0.00
2013-4-7,74.5,62.2,53.2,50.7,41.7,32.7,88,49,33,29.85,29.75,13,7,13,0.15
2013-4-8,71.9,60.0,50.5,54.9,50.9,48.3,92,74,54,29.84,29.70,17,6,17,0.12
2013-4-9,80.0,67.7,56.1,57.7,53.0,49.0,79,61,41,29.89,29.62,17,6,17,0.00
2013-4-10,82.4,72.0,63.7,62.6,57.5,55.2,74,61,44,29.68,29.34,17,7,17,0.00
2013-4-11,66.2,60.8,57.4,60.4,56.8,53.7,94,87,68,29.50,29.21,11,5,15,0.84
2013-4-12,56.8,43.5,37.4,55.1,34.0,28.9,94,70,57,29.70,29.22,12,7,19,0.32
2013-4-13,59.5,46.8,31.4,35.0,31.4,27.7,88,58,33,29.79,29.68,17,6,21,0.00
2013-4-14,74.3,58.1,36.7,44.1,37.8,30.2,80,50,29,29.93,29.63,9,4,13,0.00
2013-4-15,71.8,62.1,52.0,52.7,48.7,41.0,74,62,49,29.81,29.65,10,5,17,0.00
2013-4-16,80.6,64.4,54.7,62.6,56.1,49.0,92,76,54,29.85,29.61,14,5,17,0.44
2013-4-17,78.2,63.6,51.8,63.6,57.4,50.1,95,81,60,29.92,29.59,9,4,11,0.09
2013-4-18,80.9,72.1,60.6,61.8,55.6,49.1,86,59,41,29.60,29.21,20,12,27,0.00
2013-4-19,71.8,43.0,35.4,57.0,33.9,27.0,89,71,48,29.76,29.15,15,9,21,0.69
2013-4-20,55.4,43.1,30.5,33.9,27.5,23.9,89,57,32,30.19,29.78,8,4,15,0.00
2013-4-21,64.2,47.2,28.0,31.2,25.7,21.1,75,46,23,30.37,30.04,5,2,8,0.00
2013-4-22,74.6,57.6,34.0,38.5,31.9,23.4,67,40,21,30.16,29.87,6,2,10,0.00
2013-4-23,69.4,60.2,43.5,50.7,45.1,35.8,76,58,48,29.94,29.60,11,6,14,0.00
2013-4-24,62.8,45.4,34.7,52.0,38.8,30.9,90,78,58,30.05,29.58,14,5,17,0.78
2013-4-25,61.0,46.3,29.1,38.9,31.9,26.2,93,61,33,30.15,30.05,12,5,14,0.00
2013-4-26,65.3,51.6,30.0,37.2,29.3,24.6,83,46,22,30.26,30.10,4,2,9,0.00
2013-4-27,64.4,54.4,41.0,47.8,40.1,30.5,77,59,41,30.15,29.88,7,3,11,1.51
2013-4-28,65.6,58.3,52.5,58.4,52.7,47.9,92,82,68,29.86,29.56,7,4,11,0.12
2013-4-30,84.9,72.2,50.2,56.8,51.5,46.4,94,52,28,30.08,29.93,7,2,9,0.05
2013-5-1,89.2,73.4,54.8,58.1,52.6,48.6,82,51,28,30.15,29.99,5,1,9,0.00
2013-5-2,77.9,69.1,59.0,53.5,50.9,47.4,66,53,41,30.12,30.03,6,3,8,0.00
2013-5-3,78.1,68.9,58.6,57.5,50.7,37.7,76,54,36,30.11,30.02,6,4,11,0.00
2013-5-4,78.4,63.4,53.4,48.6,42.8,36.4,83,49,30,30.06,29.99,7,3,11,0.01
2013-5-5,54.3,51.3,48.7,50.2,47.7,46.2,92,88,82,30.04,29.97,7,2,7,1.09
2013-5-6,63.7,57.5,50.9,54.4,52.0,48.8,95,82,69,29.99,29.91,8,3,11,0.50
2013-5-7,80.9,64.5,53.4,58.5,54.3,50.8,93,72,42,30.04,29.93,4,1,6,0.07
2013-5-8,83.1,66.5,50.2,61.6,54.3,48.5,95,68,36,30.10,29.97,4,1,10,0.01
2013-5-9,84.9,67.4,53.4,58.5,53.7,49.9,90,65,34,30.12,30.00,9,2,15,0.00
2013-5-10,66.7,61.7,57.9,60.6,58.5,55.3,94,89,79,30.09,30.03,6,1,9,1.13
2013-5-11,62.6,51.9,44.9,56.2,46.5,38.8,93,82,62,30.06,29.99,5,2,11,0.00
2013-5-12,59.9,48.4,34.5,42.1,32.2,27.3,93,57,31,29.99,29.89,7,3,14,0.00
2013-5-13,67.4,52.6,33.4,41.4,31.2,25.9,88,49,22,29.94,29.85,7,3,13,0.00
2013-5-14,82.9,64.3,40.8,56.1,46.6,31.5,72,54,37,30.10,29.85,10,4,14,0.00
2013-5-15,88.7,76.7,64.7,59.9,56.0,53.4,71,50,34,30.25,29.99,10,6,17,0.00
2013-5-16,77.0,69.1,61.7,66.9,59.7,53.2,88,72,56,30.13,30.01,6,2,8,0.08
2013-5-17,84.5,68.0,58.1,67.3,61.2,56.1,95,81,48,30.12,29.99,4,0,11,0.41
2013-5-18,81.3,70.0,61.1,66.7,63.1,59.7,95,80,57,30.13,30.03,2,0,4,0.05
2013-5-19,88.3,74.2,60.1,67.6,63.5,58.3,95,72,45,30.18,30.08,4,1,6,0.01
2013-5-20,86.9,75.6,65.3,69.9,66.0,62.6,94,74,51,30.20,30.08,8,3,11,0.00
2013-5-21,84.2,74.0,62.4,65.5,62.3,58.3,88,68,48,30.17,30.06,10,4,15,0.00
2013-5-22,76.6,68.0,61.5,63.8,61.2,58.5,92,80,61,30.10,30.02,8,3,11,0.15
2013-5-23,68.9,61.4,51.8,63.3,54.8,47.1,95,79,63,30.09,30.03,7,2,11,0.12
2013-5-24,71.2,57.6,46.2,47.1,42.1,37.8,87,59,32,30.03,29.93,5,2,8,0.00
2013-5-25,69.8,56.3,41.3,47.9,43.3,37.3,87,63,41,29.98,29.90,3,1,4,0.00
2013-5-26,74.1,62.5,51.2,50.7,48.0,45.5,88,61,39,30.01,29.91,5,1,7,0.00
2013-5-27,85.4,69.8,52.3,61.4,53.6,44.6,87,58,35,30.10,29.95,7,3,11,0.14
2013-5-28,82.9,75.1,64.4,65.5,60.4,56.3,79,61,47,30.16,30.04,10,5,16,0.00
2013-5-29,87.8,76.5,63.8,62.8,59.8,55.8,77,58,35,30.17,30.02,8,4,14,0.00
2013-5-30,87.4,75.9,64.6,69.1,64.7,60.3,86,69,50,30.19,30.06,9,3,23,0.05
2013-5-31,79.3,71.2,66.4,68.3,64.7,61.4,94,81,64,30.19,30.14,11,4,14,0.50
2013-6-1,79.0,70.8,65.1,66.6,64.9,62.1,94,82,63,30.17,30.12,11,3,15,0.06
2013-6-2,79.3,69.7,61.5,62.9,58.9,55.6,90,70,50,30.13,30.05,7,3,11,0.00
2013-6-3,67.4,57.8,52.0,55.6,49.6,46.0,81,75,54,30.08,30.01,4,1,4,0.00
2013-6-4,81.7,62.9,48.4,48.7,45.2,36.6,90,58,21,30.02,29.96,4,1,4,0.00
2013-6-5,87.6,69.1,54.8,60.7,53.3,44.5,77,59,37,30.05,29.96,3,1,3,0.00
2013-6-6,79.3,66.3,60.4,66.2,61.1,57.8,93,84,63,30.04,30.00,4,0,4,0.87
2013-6-7,79.1,65.9,57.2,60.9,57.3,55.1,94,76,50,30.04,29.99,4,1,4,0.00
2013-6-8,79.7,65.5,55.2,61.9,56.8,51.7,88,74,53,30.03,29.99,2,0,2,0.00
2013-6-9,82.6,70.7,59.9,67.0,62.0,56.3,92,75,51,30.11,29.97,5,1,9,0.25
2013-6-10,77.7,68.6,61.9,66.6,62.4,58.8,95,82,60,30.12,30.06,8,2,13,0.09
2013-6-11,88.9,73.9,60.8,66.2,62.5,58.7,93,70,43,30.15,30.00,6,2,8,0.00
2013-6-12,92.8,80.2,67.3,74.5,69.3,62.8,87,71,51,30.23,30.11,9,2,14,0.00
2013-6-13,82.9,73.1,62.2,70.4,61.3,51.0,92,68,43,30.22,30.11,10,4,17,0.00
2013-6-14,61.7,56.7,52.9,53.4,50.5,49.6,90,80,68,30.12,30.08,3,1,8,0.00
2013-6-15,85.4,70.6,55.6,63.7,59.4,52.4,91,69,45,30.14,30.04,6,1,6,0.00
2013-6-16,67.8,66.5,65.5,63.5,61.1,60.4,86,83,78,30.13,30.11,2,0,3,0.00
2013-6-17,91.4,74.7,65.3,70.5,66.6,62.0,95,78,44,30.18,30.10,9,0,9,0.00
2013-6-18,91.4,70.8,63.3,67.5,62.9,60.2,92,78,42,30.17,30.07,4,0,4,0.00
2013-6-19,65.6,59.6,55.9,59.8,55.1,52.7,90,85,80,30.14,30.09,0,0,0,0.00
2013-6-20,91.2,72.2,55.7,64.3,57.4,51.8,89,63,33,30.13,30.07,5,1,5,0.00
2013-6-21,91.9,74.4,59.0,67.4,61.9,55.1,88,68,38,30.20,30.08,6,1,6,0.00
2013-6-22,87.6,72.4,64.9,72.1,66.1,61.9,91,81,56,30.18,30.12,5,1,8,0.00
2013-6-23,86.3,71.8,62.2,71.8,65.5,59.2,96,82,55,30.18,30.10,6,1,6,0.00
2013-6-24,86.3,73.8,63.3,70.9,66.4,61.2,94,79,56,30.17,30.11,5,1,5,0.00
2013-6-25,92.1,77.5,64.9,73.9,68.5,62.8,94,76,51,30.22,30.11,8,2,8,0.00
2013-6-26,84.7,69.8,64.7,72.6,65.9,62.5,95,88,67,30.20,30.10,7,2,8,0.00
2013-6-27,88.5,75.3,65.1,72.4,68.2,63.9,98,81,54,30.22,30.14,6,2,11,0.00
2013-6-28,87.2,74.4,64.0,67.4,63.3,58.9,91,71,41,30.23,30.13,7,3,14,0.00
2013-6-29,80.4,70.5,59.9,67.5,63.4,57.9,94,79,59,30.13,30.05,3,1,7,0.00
2013-6-30,78.1,69.4,64.0,65.5,63.2,61.4,94,82,63,30.09,30.02,2,0,4,0.00
2013-7-1,80.8,69.8,62.2,67.9,62.7,58.6,90,79,60,30.07,29.93,4,1,8,0.00
2013-7-2,85.4,73.6,64.2,68.0,64.6,61.8,93,75,52,30.15,29.97,5,1,7,0.00
2013-7-3,81.5,71.6,63.1,69.2,64.6,60.8,95,80,60,30.15,30.04,4,1,11,0.00
2013-7-4,70.1,68.3,66.7,67.1,65.8,64.7,96,92,87,30.13,30.06,0,0,4,0.00
2013-7-5,81.1,71.4,63.5,70.5,66.6,62.6,98,86,68,30.12,30.03,0,0,0,0.00
2013-7-6,73.9,68.7,65.6,70.3,66.5,63.7,96,93,85,30.11,30.04,3,0,8,0.00
2013-7-7,86.5,72.8,62.6,70.5,65.7,61.6,98,81,50,30.17,30.00,4,1,6,0.00
2013-7-8,86.7,76.5,65.3,72.5,68.6,63.4,95,78,60,30.19,30.06,6,2,8,0.38
2013-7-9,90.8,80.2,72.5,76.4,71.0,67.2,86,74,56,30.24,30.18,5,2,9,0.00
2013-7-10,84.0,78.0,70.3,75.4,71.7,67.2,92,81,69,30.23,29.89,5,1,6,0.00
2013-7-11,86.7,74.7,62.6,68.1,62.3,54.9,95,67,46,29.90,29.78,5,1,9,0.00
2013-7-12,85.6,71.3,56.5,61.2,57.4,53.3,90,64,38,29.84,29.71,3,1,8,0.00
2013-7-13,87.1,76.5,62.0,66.8,62.3,57.5,86,63,44,29.89,29.74,4,1,7,0.00
2013-7-14,95.2,81.8,67.6,72.6,68.7,62.8,86,66,46,29.96,29.81,5,1,12,0.00
2013-7-15,98.8,83.4,70.0,72.1,69.6,66.9,91,66,39,29.98,29.91,3,1,7,0.00
2013-7-16,98.9,85.4,68.5,75.8,70.7,65.8,93,64,38,30.00,29.91,2,0,4,0.00
2013-7-17,97.5,85.2,71.9,76.5,72.8,69.2,92,68,47,29.98,29.90,3,0,4,0.00
2013-7-18,99.3,86.4,70.5,75.9,70.5,67.4,92,62,36,29.98,29.90,4,1,5,0.00
2013-7-19,92.5,83.1,71.6,75.8,72.7,69.3,94,72,54,29.95,29.87,6,2,10,0.00
2013-7-20,88.7,78.1,70.9,73.0,69.4,66.3,89,75,57,29.93,29.85,7,3,11,0.00
2013-7-21,91.6,79.2,66.4,72.9,68.8,64.0,93,72,51,29.93,29.82,2,0,4,0.00
2013-7-22,85.6,74.5,67.1,72.6,68.8,64.4,94,83,63,29.90,29.85,5,0,7,0.00
2013-7-23,88.0,78.0,65.6,73.5,69.5,61.0,97,76,59,29.92,29.83,6,2,11,0.00
2013-7-24,84.0,70.0,56.6,63.0,58.1,52.8,88,67,46,29.85,29.69,4,1,5,0.00
2013-7-25,80.8,71.6,52.5,58.5,56.0,49.4,90,60,46,29.79,29.67,2,1,57,0.00
2013-7-26,85.6,76.1,66.4,61.2,59.4,56.8,82,58,40,30.00,29.93,4,2,7,0.00
2013-7-27,80.8,68.7,61.5,66.5,58.9,5.3,95,74,10,29.98,29.90,6,2,11,0.00
2013-7-28,75.2,64.9,49.6,56.0,50.1,46.8,91,60,43,29.94,29.81,6,2,13,0.00
2013-7-29,82.2,59.2,51.1,56.0,53.1,48.2,90,82,39,29.93,29.81,3,0,5,0.00
2013-7-30,79.0,72.0,55.4,62.1,60.2,51.9,92,67,51,29.92,29.77,4,0,4,0.00
2013-7-31,80.0,71.3,62.9,67.8,64.4,60.1,94,80,65,29.90,29.83,4,1,4,0.00
2013-8-1,86.5,73.4,64.9,65.1,59.9,53.1,95,66,37,29.94,29.86,5,2,10,0.00
2013-8-2,85.6,73.0,55.7,64.6,60.3,53.0,91,66,44,29.96,29.80,7,2,12,0.00
2013-8-3,85.6,73.8,65.3,70.3,64.5,59.7,92,74,50,29.94,29.88,3,1,8,0.00
2013-8-4,84.0,72.4,56.5,59.3,54.8,51.0,82,57,34,29.91,29.77,5,2,8,0.00
2013-8-5,85.6,69.6,53.8,61.2,55.6,51.2,92,65,36,29.92,29.78,4,1,6,0.00
2013-8-6,83.1,74.5,65.1,67.4,62.9,55.8,83,67,56,29.96,29.85,5,1,7,0.00
2013-8-7,86.7,77.2,67.6,73.9,70.2,64.3,96,80,62,30.00,29.91,5,1,7,0.00
2013-8-8,87.8,77.2,68.7,74.7,70.9,67.1,96,82,61,30.02,29.96,5,1,8,0.00
2013-8-9,85.3,74.6,67.1,73.4,70.1,65.6,98,87,61,29.99,29.91,4,1,6,0.00
2013-8-10,90.1,81.1,70.1,71.2,68.6,66.5,88,67,49,29.97,29.92,0,0,0,0.00
2013-8-11,89.2,77.4,65.5,72.7,66.3,61.7,96,71,45,29.98,29.91,4,1,6,0.00
2013-8-12,86.9,75.6,62.2,69.9,66.8,59.9,93,75,56,29.92,29.83,5,1,8,0.00
2013-8-13,80.4,72.0,60.6,69.1,60.8,48.3,93,69,50,29.92,29.82,5,2,10,0.00
2013-8-14,78.1,64.3,49.8,53.2,49.0,46.4,89,60,38,29.85,29.80,5,1,5,0.00
2013-8-15,79.3,65.5,47.5,56.8,52.3,45.0,91,65,41,29.83,29.77,3,0,6,0.00
2013-8-16,84.7,70.7,52.9,57.8,53.5,49.0,87,57,31,29.89,29.79,4,1,4,0.00
2013-8-17,86.0,69.9,57.4,60.8,56.1,51.6,83,64,38,29.91,29.78,3,0,3,0.00
2013-8-18,86.7,73.5,57.7,62.9,59.1,55.1,93,63,38,29.90,29.76,2,0,4,0.00
2013-8-19,91.9,75.8,57.9,64.2,60.3,55.0,93,62,34,29.91,29.78,2,0,4,0.00
2013-8-20,91.0,79.6,60.2,67.4,62.5,57.6,92,60,37,29.91,29.79,4,2,7,0.00
2013-8-21,91.0,76.7,65.3,72.3,67.6,61.9,91,75,51,29.95,29.85,4,0,11,0.00
2013-8-22,90.7,77.9,66.7,71.9,68.5,63.4,96,74,48,29.96,29.91,7,1,9,0.14
2013-8-23,89.6,74.2,63.1,70.8,65.8,60.9,97,78,49,29.95,29.86,0,0,2,0.24
2013-8-24,92.8,73.5,58.4,66.3,60.7,54.8,89,67,37,29.92,29.80,1,0,5,0.00
2013-8-25,93.7,81.5,66.4,65.8,60.0,54.4,83,51,29,30.07,29.93,3,1,5,0.00
2013-8-26,92.5,77.5,60.1,71.2,66.0,56.5,90,70,46,30.08,29.94,5,1,12,0.00
2013-8-27,93.4,81.9,68.2,75.5,71.3,66.1,95,71,54,30.10,30.03,3,1,7,0.00
2013-8-28,95.3,83.1,72.5,73.1,70.4,68.4,90,68,42,30.11,30.03,7,3,16,0.00
2013-8-29,92.3,79.9,68.7,72.3,68.7,64.5,95,71,47,30.11,30.02,2,0,5,0.00
2013-8-30,94.3,79.9,64.7,70.8,67.0,62.8,94,68,41,30.08,30.02,4,1,7,0.00
2013-8-31,96.8,77.5,67.6,75.3,69.5,64.4,94,79,47,30.10,30.01,7,2,11,0.34
2013-9-1,86.2,76.0,65.1,71.5,68.1,63.6,97,78,60,30.08,30.00,5,1,9,0.01
2013-9-2,89.2,78.4,67.1,72.0,67.5,61.1,98,72,46,30.08,29.92,6,2,11,0.00
2013-9-3,80.6,66.1,55.7,58.1,55.0,52.8,91,70,42,29.85,29.71,4,2,8,0.00
2013-9-4,87.1,74.8,54.8,61.7,58.6,53.2,94,60,37,30.05,29.92,4,1,7,0.00
2013-9-5,92.5,75.5,57.0,64.1,59.9,54.3,92,63,33,30.09,29.96,3,0,4,0.00
2013-9-6,89.0,71.2,53.9,54.6,51.4,47.1,79,53,26,30.05,29.90,3,1,4,0.00
2013-9-7,90.7,74.7,55.4,66.4,60.7,51.6,90,65,40,30.29,29.91,5,2,9,0.00
2013-9-8,95.3,79.5,63.8,67.8,65.5,61.2,92,65,38,30.13,30.01,2,0,4,0.00
2013-9-9,93.9,80.5,65.8,70.2,66.5,63.0,93,66,39,30.14,30.06,7,3,11,0.00
2013-9-10,95.9,81.0,71.4,75.1,69.8,65.3,89,70,48,30.19,30.08,6,2,10,0.00
2013-9-11,98.0,81.7,67.6,73.9,67.9,60.9,94,67,31,30.16,30.08,5,2,9,0.00
2013-9-12,82.4,73.8,64.9,70.9,66.8,61.0,95,80,57,30.11,30.07,5,1,9,0.19
2013-9-13,72.5,59.4,48.5,58.0,46.7,42.8,93,66,39,30.07,29.89,6,2,11,0.00
2013-9-14,78.1,60.1,43.3,45.2,42.1,36.8,90,57,23,29.97,29.89,3,1,6,0.00
2013-9-15,81.7,64.7,44.8,56.5,50.5,42.0,91,63,35,30.01,29.92,7,2,11,0.00
2013-9-16,77.9,64.4,56.5,57.9,54.8,49.3,92,72,47,30.01,29.98,3,0,4,0.02
2013-9-17,82.2,65.4,48.2,54.4,50.8,45.9,92,63,34,30.02,29.95,5,1,6,0.00
2013-9-18,82.9,68.6,55.2,65.0,58.9,49.8,86,72,54,30.06,29.96,6,1,8,0.00
2013-9-19,81.8,70.7,63.1,69.4,65.4,62.0,97,84,63,30.06,30.00,6,2,10,0.28
2013-9-20,86.5,72.6,64.9,69.9,66.9,64.2,98,84,56,30.08,30.03,8,3,11,0.31
2013-9-21,75.9,64.1,53.8,64.7,54.5,48.4,97,74,40,30.06,29.96,6,2,10,0.20
2013-9-22,75.5,60.3,45.1,49.4,46.2,42.9,94,63,34,29.98,29.92,8,1,9,0.00
2013-9-23,75.5,60.0,44.0,51.0,46.1,41.5,92,64,36,29.96,29.91,3,1,8,0.00
2013-9-24,80.6,62.9,44.2,57.5,51.0,41.8,92,68,43,29.96,29.90,3,1,4,0.00
2013-9-25,83.3,66.3,52.1,57.2,52.4,47.9,86,63,37,29.99,29.92,2,1,4,0.00
2013-9-26,84.7,66.0,47.6,59.1,53.6,45.7,95,68,40,30.02,29.92,3,1,6,0.00
2013-9-27,88.7,68.8,50.2,59.5,50.5,46.0,87,57,25,30.04,29.96,3,1,5,0.00
2013-9-28,85.4,68.4,48.7,58.5,54.1,45.9,92,64,36,30.04,29.96,5,1,8,0.00
2013-9-29,62.0,58.8,55.2,58.5,56.6,53.1,96,93,82,30.02,29.98,4,0,5,0.22
2013-9-30,75.7,64.7,58.6,64.7,60.4,57.8,98,87,66,30.00,29.95,5,1,7,0.08
2013-10-1,79.1,67.4,55.6,65.0,60.2,54.9,99,79,57,30.05,29.97,6,2,11,0.00
2013-10-2,73.7,66.7,57.9,68.3,63.2,56.5,97,89,78,30.04,29.99,3,0,5,0.00
2013-10-3,84.9,72.5,65.6,70.8,65.8,62.7,99,81,53,30.08,30.02,4,1,7,0.04
2013-10-4,84.0,73.2,62.0,70.7,65.4,61.2,98,78,58,30.11,30.03,7,1,9,0.00
2013-10-5,78.6,70.3,66.0,70.1,66.1,63.4,95,87,73,30.10,30.03,7,2,11,0.12
2013-10-6,68.3,60.3,50.9,66.6,59.0,48.9,99,95,89,30.05,30.00,8,1,12,1.62
2013-10-7,65.5,52.8,41.9,46.9,44.0,40.0,94,74,49,29.98,29.91,6,2,12,0.00
2013-10-8,72.1,56.6,40.8,49.8,44.0,39.5,97,67,35,29.96,29.90,4,1,7,0.00
2013-10-9,79.9,60.9,43.9,53.7,46.6,40.7,90,63,31,29.97,29.91,3,1,7,0.00
2013-10-10,80.9,61.8,43.3,50.3,44.3,40.9,92,58,26,29.97,29.91,0,0,0,0.00
2013-10-11,85.6,64.4,45.3,54.1,48.9,40.9,93,62,30,29.99,29.90,0,0,0,0.00
2013-10-12,87.1,63.6,49.1,61.0,52.6,46.6,93,71,34,30.01,29.94,4,0,6,0.00
2013-10-13,80.6,65.2,53.4,59.5,52.2,39.4,92,65,37,30.04,29.97,4,1,5,0.00
2013-10-14,52.5,46.8,43.5,39.9,39.4,39.0,84,76,62,30.01,29.95,0,0,0,0.00
2013-10-15,72.3,60.3,51.4,62.6,55.0,43.7,94,84,64,29.94,29.90,9,1,9,0.01
2013-10-16,69.1,59.6,46.0,59.8,52.8,42.1,96,80,49,29.92,29.91,7,1,7,0.05
2013-10-17,55.6,45.5,38.8,50.2,41.9,37.0,95,87,73,29.91,29.84,7,1,7,0.15
2013-10-18,67.6,53.4,38.8,51.4,42.4,38.0,98,69,44,29.86,29.81,8,2,11,0.00
2013-10-19,50.0,44.1,37.6,44.2,39.0,33.8,92,82,68,29.93,29.83,6,1,9,0.15
2013-10-20,63.8,50.2,34.3,44.0,38.8,32.2,94,68,42,29.92,29.83,10,5,15,0.01
2013-10-21,66.5,54.1,38.8,45.8,41.7,34.9,86,65,43,29.95,29.85,10,4,15,0.00
2013-10-22,57.9,44.4,28.0,42.2,30.1,25.1,90,60,35,29.93,29.88,7,1,7,0.06
2013-10-23,46.4,38.5,34.5,37.3,32.6,27.0,93,80,57,29.96,29.84,12,2,13,0.11
2013-10-24,45.7,36.8,31.6,37.2,31.3,28.7,91,81,60,29.95,29.85,6,2,13,0.07
2013-10-25,52.5,36.8,24.8,33.5,26.2,22.3,93,69,37,29.98,29.86,5,1,8,0.00
2013-10-26,55.0,41.8,26.8,36.6,30.8,22.1,84,66,48,29.95,29.83,10,5,18,0.00
2013-10-27,63.3,46.7,31.1,39.2,33.3,28.2,92,63,35,29.97,29.85,5,1,8,0.00
2013-10-28,70.1,49.6,30.4,40.5,33.2,27.2,91,58,27,29.98,29.86,4,1,6,0.00
2013-10-29,54.5,48.0,37.4,42.7,38.7,30.7,86,70,58,29.96,29.90,2,0,2,0.00
2013-10-30,61.1,56.7,48.7,60.1,55.1,44.9,97,94,85,30.00,29.89,1,0,5,0.18
2013-10-31,62.8,60.1,55.2,61.7,57.4,52.6,97,91,82,29.97,29.90,14,8,21,1.18
2013-11-1,64.6,54.6,44.6,53.1,44.4,39.6,95,71,44,29.92,29.89,11,5,16,0.02
2013-11-2,59.2,48.1,41.0,42.3,36.9,32.1,87,67,43,29.95,29.88,7,3,14,0.00
2013-11-3,62.2,45.8,34.5,42.5,35.5,31.3,94,70,40,29.98,29.89,4,0,6,0.00
2013-11-4,56.1,48.5,36.8,40.8,37.4,31.6,81,66,54,29.93,29.88,8,2,10,0.00
2013-11-5,61.0,53.7,47.3,44.4,40.9,36.8,83,63,49,29.96,29.88,6,2,7,0.00
2013-11-6,60.8,54.8,41.7,55.8,48.4,36.5,95,80,61,29.95,29.89,12,5,16,0.83
2013-11-7,52.7,41.9,34.9,39.6,29.9,23.1,94,65,39,29.93,29.88,11,3,11,0.05
2013-11-8,56.3,41.0,25.0,35.0,27.7,22.6,92,63,35,29.95,29.84,7,2,9,0.00
2013-11-9,61.9,49.5,33.2,36.8,32.2,24.5,71,53,35,29.96,29.84,14,7,25,0.00
2013-11-10,55.0,44.5,31.6,38.3,28.9,24.3,74,56,37,29.97,29.88,9,3,14,0.00
2013-11-11,55.4,43.9,26.4,40.5,32.0,23.1,88,66,35,29.98,29.85,9,3,13,0.06
2013-11-12,42.2,30.1,21.5,29.6,21.3,16.1,91,71,48,29.97,29.93,4,1,11,0.07
2013-11-13,43.1,30.6,16.7,23.3,17.0,13.8,91,61,33,30.00,29.90,9,4,10,0.00
2013-11-14,55.6,41.3,23.9,25.1,18.0,13.2,75,43,19,29.97,29.89,11,7,17,0.00
2013-11-15,48.5,44.0,35.4,39.9,27.6,17.1,84,53,41,29.96,29.92,8,4,11,0.00
2013-11-16,58.3,51.1,43.7,53.1,47.8,39.5,94,88,82,29.99,29.93,12,6,13,0.00
2013-11-17,62.0,57.8,50.0,60.4,54.3,39.5,96,89,66,29.95,29.91,16,9,21,0.67
2013-11-18,53.9,46.0,37.0,39.0,32.4,26.0,86,61,42,29.95,29.88,12,6,21,0.01
2013-11-19,47.6,34.9,24.2,30.7,25.4,21.2,89,69,48,29.97,29.93,5,1,8,0.00
2013-11-20,53.9,39.7,23.9,32.6,27.7,20.3,87,64,43,29.99,29.91,6,3,8,0.00
2013-11-21,57.7,48.6,40.3,43.7,38.5,29.1,89,68,57,29.98,29.89,8,2,10,0.07
2013-11-22,51.2,45.2,36.3,50.0,42.2,30.1,96,89,78,29.99,29.90,6,2,11,0.09
2013-11-23,39.0,29.0,19.0,29.3,19.2,10.9,93,68,45,29.97,29.93,11,4,18,0.00
2013-11-24,34.1,21.9,12.4,17.2,10.8,6.7,81,63,42,29.97,29.90,5,1,8,0.00
2013-11-25,35.8,28.8,13.6,23.9,15.9,8.2,82,60,42,29.96,29.89,9,4,13,0.00
2013-11-26,35.2,31.5,28.6,30.2,26.8,23.2,92,83,74,29.93,29.89,4,1,7,0.01
2013-11-27,30.5,24.3,16.5,25.8,16.3,8.7,83,71,64,29.96,29.87,8,5,16,0.00
2013-11-28,36.5,25.5,12.4,15.6,12.4,7.3,82,59,41,29.95,29.87,11,4,14,0.19
2013-11-29,46.2,31.4,16.0,23.5,18.0,11.2,84,60,37,30.06,29.91,4,2,7,0.00
2013-11-30,53.6,39.5,23.5,29.9,24.7,17.3,81,58,36,29.99,29.92,8,4,13,0.00
2013-12-1,52.9,44.7,33.6,35.7,31.8,23.7,72,61,51,29.96,29.89,7,3,9,0.00
2013-12-2,50.5,43.3,31.8,38.5,35.0,28.4,89,73,59,29.93,29.89,3,1,4,0.00
2013-12-3,52.9,44.0,32.7,45.7,40.3,29.6,96,87,75,29.93,29.88,49,2,49,0.00
2013-12-4,60.2,55.0,40.6,55.9,52.1,38.5,96,90,85,29.97,29.91,8,4,13,0.02
2013-12-5,54.3,38.8,29.3,50.8,34.9,27.3,92,86,76,29.95,29.92,8,3,14,0.29
2013-12-6,29.1,25.0,23.3,26.8,23.4,21.9,94,93,91,29.93,29.88,0,0,0,0.02
2013-12-7,34.0,21.2,11.3,25.7,16.9,9.2,94,84,65,29.99,29.90,0,0,4,0.34
2013-12-8,28.0,23.0,14.7,27.0,20.3,11.3,96,89,84,29.95,29.87,0,0,0,0.00
2013-12-9,29.6,25.3,20.1,28.9,21.8,16.1,97,86,79,29.90,29.86,0,0,0,0.00
2013-12-10,30.2,21.5,13.3,16.1,12.3,7.5,90,68,48,29.89,29.83,10,3,14,0.00
2013-12-11,37.2,22.2,7.5,23.1,14.4,4.5,89,73,51,29.95,29.83,11,4,14,0.06
2013-12-12,26.0,15.5,-0.1,7.0,2.7,-3.7,85,59,32,29.93,29.85,9,4,13,0.00
2013-12-13,40.6,28.8,12.9,26.5,16.9,4.7,86,62,44,29.93,29.83,13,4,14,0.04
2013-12-14,35.2,32.6,30.0,34.2,31.3,26.9,96,95,88,29.89,29.84,8,2,14,0.39
2013-12-15,30.5,25.4,23.7,21.4,19.4,18.1,86,78,65,29.95,29.92,10,4,15,0.00
2013-12-16,33.8,29.3,25.1,30.1,26.7,23.7,94,90,85,29.98,29.92,3,0,4,0.05
2013-12-17,32.2,27.6,24.6,26.5,23.1,20.9,91,83,75,29.97,29.92,11,4,15,0.01
2013-12-18,39.9,28.7,16.7,21.5,17.0,13.5,91,64,41,29.97,29.90,11,5,15,0.01
2013-12-19,51.4,45.0,32.0,39.6,31.8,18.5,73,60,54,29.98,29.89,12,7,16,0.00
2013-12-20,57.2,52.5,49.3,54.7,46.8,36.6,93,81,60,29.99,29.87,13,9,17,0.01
2013-12-21,63.1,59.1,56.5,61.1,58.1,54.8,99,97,90,29.96,29.91,16,8,22,1.61
2013-12-22,59.7,46.9,35.9,58.8,42.9,33.9,97,86,74,29.99,29.91,16,7,17,0.27
2013-12-23,33.4,27.3,20.8,31.1,21.2,15.6,93,78,72,29.96,29.92,9,4,11,0.04
2013-12-24,25.7,16.2,10.0,17.2,8.3,4.3,83,71,57,29.96,29.90,11,3,11,0.00
2013-12-25,29.6,24.9,14.5,19.9,15.3,10.2,83,67,56,29.93,29.88,8,4,12,0.00
2013-12-26,42.1,33.3,26.0,24.3,20.8,18.1,79,61,42,30.01,29.89,11,4,11,0.00
2013-12-27,51.2,38.3,24.1,30.6,26.0,19.4,83,63,43,30.00,29.93,8,4,9,0.00
2013-12-28,53.9,41.9,30.0,34.4,28.5,24.5,80,60,41,30.01,29.94,10,5,12,0.00
2013-12-29,43.7,36.5,30.0,37.9,32.6,25.5,94,86,58,29.96,29.90,9,4,13,0.27
2013-12-30,28.7,22.8,17.0,25.4,15.7,11.7,87,74,65,29.95,29.92,12,3,12,0.00
2013-12-31,34.3,26.9,19.0,18.0,15.7,12.2,81,63,50,29.98,29.88,10,5,14,0.00
2014-1-1,45.8,34.4,20.3,30.4,23.9,15.1,87,67,48,29.99,29.89,8,2,12,0.00
2014-1-2,33.6,19.8,8.6,26.3,15.8,4.0,91,84,67,29.95,29.89,4,2,9,0.00